Aérodrome :
LOGIN :

S'inscrire | Disclaimer

   EN    FR    IT 

 










Légende :    VFR   VFR Marginal   IFR   IFR Intensif   IFR Très Intensif
Visi : 
Plafond : 
>= 8 km
>= 3000ft
5 à 8 km
1000 à 3000 ft
1500m à 5 km
500 à 1000 ft
800 à 1500m
200 à 500 ft
< 800m
< 200 ft
Symboles :   Orages  Brouillard  Fortes neiges  Fortes précipitations  Vent > 20 kt
SIGMETs :   Divers  Orages  Givrage  Turbulence  Onde Orograph.  Cendres Volcan.







- Altitude de l'aérodrome : 407 ft


EGDM - MoD Boscombe Down Amesbury

DERNIER METAR :
  • 230850Z 18007KT 9999 FEW012 SCT035 BKN250 15/13 Q1011 NOSIG RMK BLU BLU

METARs EXPIRÉS :
  • 230820Z 17007KT 9999 FEW017 BKN045 13/12 Q1011 NOSIG RMK BLU BLU
  • 230750Z 17005KT 9999 FEW018 SCT050 12/11 Q1011 NOSIG RMK BLU BLU
  • 230720Z 17004KT CAVOK 11/11 Q1011 NOSIG RMK BLU BLU
  • 230650Z 15004KT CAVOK 10/10 Q1010 NOSIG RMK BLU BLU
  • 230550Z 20004KT 9999 FEW020 10/09 Q1010 RMK BLU

TAF TAF EGDM
Valide du 23 à 09h jusqu'au 23 à 18h UTC


230735Z 2309/2318 20012KT 9999 SCT025
TEMPO 2309/2312 SCT020
BECMG 2312/2314 BKN018
TEMPO 2312/2318 20015G25KT
BECMG 2314/2316 BKN008
TEMPO 2314/2318 6000 -RA
PROB30
TEMPO 2316/2318 4000 RA BKN006
Pas de NOTAMs connus pour ce terrain.



MET'MAP, la Météo Aéronautique d'un coup d'oeil ! - Copyright ORBIFLY Décembre 2007 - Disclaimer

ORBIFLY MET'MAP TEAM :

Programmation & Développement : Alexandra Zaïnal
Conception & Développement : Baudouin d'Aumeries
Co-Programmation & Développement : Marc-Olivier Méhu
Soutien technique & logistique : Manuel Goepfert

Contact : metmap@orbifly.com




SOURCES & CREDITS :

   NOAA